Date,TemperatureHighF,TemperatureAvgF,TemperatureLowF,DewpointHighF,DewpointAvgF,DewpointLowF,HumidityHigh,HumidityAvg,HumidityLow,PressureMaxIn,PressureMinIn,WindSpeedMaxMPH,WindSpeedAvgMPH,GustSpeedMaxMPH,PrecipitationSumIn
2013-1-1,25.2,14.2,5.0,15.6,9.5,1.3,90,81,63,30.77,30.48,7,1,7,0.00
2013-1-2,28.5,10.1,-0.2,15.9,4.8,-4.4,95,79,58,30.79,30.67,9,1,11,0.00
2013-1-3,25.3,10.5,1.2,15.9,5.6,-2.9,92,81,65,30.74,30.63,6,1,6,0.00
2013-1-4,29.1,15.5,3.9,17.9,8.1,0.1,95,73,59,30.75,30.61,5,0,5,0.00
2013-1-5,28.7,19.9,9.9,17.7,8.5,-0.8,63,60,57,30.63,30.34,0,0,0,0.00
2013-1-6,28.6,22.8,17.4,22.3,14.4,6.0,92,71,54,30.42,30.29,7,0,7,0.37
2013-1-7,32.1,20.7,4.2,27.9,16.9,0.5,92,85,75,30.59,30.41,7,1,9,0.00
2013-1-8,44.4,27.3,14.1,33.1,23.1,10.9,94,85,63,30.54,30.39,7,1,7,0.00
2013-1-9,55.7,34.0,17.6,40.3,24.3,14.9,92,72,34,30.41,29.79,48,11,53,6.04
2013-1-10,32.5,27.4,21.8,21.8,12.2,8.3,84,53,42,30.10,29.86,33,6,33,1.12
2013-1-11,30.0,24.7,18.0,20.1,12.9,5.2,88,63,38,30.26,30.09,25,5,26,0.93
2013-1-12,23.8,8.4,-4.8,13.3,2.9,-9.5,92,78,56,30.51,30.26,6,1,6,0.00
2013-1-13,23.2,6.5,-9.2,8.8,-0.7,-14.3,83,73,48,30.69,30.51,11,2,12,0.00
2013-1-14,24.4,8.2,-4.9,10.0,1.2,-9.3,92,73,52,30.86,30.69,11,1,11,0.00
2013-1-15,34.4,15.5,3.3,18.5,8.4,-1.2,92,74,49,30.98,30.85,5,1,5,0.00
2013-1-16,40.7,18.7,4.4,23.5,12.5,0.1,86,77,46,30.98,30.80,5,0,5,0.00
2013-1-17,36.7,17.9,4.9,21.9,12.0,0.9,87,79,47,30.86,30.69,5,1,5,0.00
2013-1-18,35.9,17.9,5.6,21.6,11.8,2.1,92,78,50,30.76,30.65,5,1,5,0.00
2013-1-19,25.4,14.4,5.7,17.4,8.9,1.8,87,79,64,30.79,30.70,4,0,4,0.00
2013-1-20,41.1,23.4,12.0,22.7,12.7,2.5,81,64,45,30.72,30.57,5,0,5,0.00
2013-1-21,40.7,25.7,9.8,21.6,16.5,6.4,87,70,38,30.67,30.50,6,1,6,0.00
2013-1-22,30.7,17.8,12.3,22.7,14.0,9.2,89,85,73,30.57,30.50,3,0,4,0.00
2013-1-25,45.7,22.5,30.7,42.5,-14.2,-99.9,93,59,86,30.31,30.12,7,1,7,0.02
2013-1-26,53.6,39.5,27.5,39.6,27.1,16.1,93,66,29,30.12,29.84,38,4,38,0.01
2013-1-27,41.1,30.7,22.0,28.2,20.1,8.2,92,66,32,30.18,29.84,30,4,32,0.04
2013-1-28,36.9,26.9,14.9,23.8,18.1,11.2,86,71,49,30.34,30.18,13,2,14,0.00
2013-1-29,52.4,39.1,30.7,32.6,28.1,22.9,85,65,45,30.47,30.29,13,2,13,0.00
2013-1-30,54.9,35.2,23.4,36.1,26.7,20.4,89,73,44,30.52,30.40,7,1,7,0.00
2013-1-31,56.7,34.3,22.5,35.6,25.7,19.4,90,73,44,30.51,30.29,7,1,7,0.00
2013-2-1,55.1,33.7,21.4,30.7,23.6,17.9,88,69,33,30.46,30.33,6,1,7,0.00
2013-2-2,44.5,32.1,24.4,31.4,25.9,21.3,92,79,55,30.52,30.42,5,0,5,0.00
2013-2-3,55.3,34.2,21.2,32.3,24.2,18.2,90,70,32,30.43,30.27,9,1,10,0.01
2013-2-4,59.4,36.3,21.4,32.8,25.0,17.6,88,67,30,30.35,30.12,7,1,7,0.01
2013-2-5,59.0,40.5,24.6,33.4,21.4,12.1,85,53,19,30.16,29.95,31,4,31,0.00
2013-2-6,51.6,32.5,17.5,23.2,17.6,11.6,83,57,21,30.22,30.09,10,2,10,0.00
2013-2-7,48.2,36.5,24.5,27.0,14.5,-2.2,76,44,12,30.15,29.87,46,9,46,0.00
2013-2-8,34.7,26.5,16.9,19.8,16.2,11.7,83,65,46,30.11,29.90,18,3,19,0.00
2013-2-9,39.9,25.5,13.9,18.4,14.7,10.2,86,65,36,30.26,30.10,12,2,12,0.00
2013-2-10,40.5,26.2,15.1,22.1,16.1,10.9,86,67,40,30.31,30.20,16,3,16,0.00
2013-2-11,46.1,26.6,13.5,18.5,14.2,9.0,84,64,27,30.48,30.30,8,1,10,0.00
2013-2-12,52.4,30.8,15.2,23.8,18.6,11.3,92,64,30,30.56,30.43,9,1,9,0.00
2013-2-13,53.4,33.1,18.4,27.6,21.8,14.9,88,66,36,30.55,30.38,11,2,11,0.00
2013-2-14,54.0,35.2,20.7,31.5,24.0,10.6,89,66,39,30.55,30.41,12,2,13,0.00
2013-2-15,58.9,36.5,21.5,29.9,23.9,12.7,92,63,33,30.59,30.41,7,0,7,0.00
2013-2-16,33.4,33.0,32.4,22.2,21.8,20.9,63,63,63,30.47,30.46,0,0,0,0.00
2013-2-21,24.2,23.4,21.8,18.5,16.5,15.0,83,75,69,30.26,30.25,4,2,4,0.01
2013-2-22,54.4,36.8,19.5,25.0,19.5,14.7,84,53,25,30.38,30.10,33,3,33,0.00
2013-2-23,49.3,36.5,18.7,26.4,17.4,9.7,77,46,28,30.30,29.87,51,12,60,0.00
2013-2-24,43.9,26.7,13.1,17.6,13.1,9.2,86,60,27,30.50,30.30,8,1,9,0.00
2013-2-25,56.2,34.0,18.0,24.1,15.7,5.5,83,54,14,30.42,30.16,32,5,33,0.00
2013-2-26,46.1,31.1,18.1,19.0,13.6,3.3,78,52,19,30.42,30.26,15,3,15,0.00
2013-2-27,58.4,31.8,15.4,20.0,8.7,-99.9,84,49,20,30.55,30.36,16,-54,19,0.00
2013-2-28,64.0,42.2,24.5,33.9,25.6,16.5,82,55,29,30.53,30.39,11,2,11,0.00
2013-3-1,64.8,42.5,25.2,33.9,28.5,21.6,90,62,29,30.56,30.33,11,2,11,0.00
2013-3-2,67.3,46.2,28.8,34.5,27.9,23.9,87,54,22,30.41,30.06,34,3,36,0.00
2013-3-3,48.6,14.1,42.7,35.5,-58.6,-99.9,73,20,54,30.06,29.92,17,-690,18,0.00
2013-3-4,59.6,29.4,30.6,39.5,-12.6,-99.9,93,44,36,30.16,29.92,9,-342,9,0.00
2013-3-5,33.4,30.7,29.0,29.1,26.8,25.1,89,85,82,30.01,30.00,9,2,9,0.00
2013-3-8,42.2,36.8,31.0,32.6,28.9,25.9,95,74,55,30.05,29.88,8,1,8,0.04
2013-3-9,49.9,37.3,26.7,29.3,20.5,12.0,91,56,22,30.47,30.05,12,1,12,0.00
2013-3-10,58.8,37.1,17.6,24.4,17.6,12.3,86,50,17,30.55,30.38,11,2,11,0.00
2013-3-22,45.9,37.0,30.7,14.3,11.2,7.7,44,34,23,30.20,30.04,17,4,18,0.04
2013-3-23,32.6,23.3,18.0,14.6,11.5,9.3,76,61,38,30.31,30.20,7,1,7,0.00
2013-3-24,64.8,56.8,43.7,30.6,27.0,21.3,46,32,24,30.01,29.97,17,5,18,0.00
2013-3-29,49.3,45.1,42.5,34.7,33.7,30.2,73,65,54,30.13,30.11,6,3,6,0.00
2013-3-30,66.3,46.4,30.7,41.6,34.4,26.6,89,66,33,30.14,29.91,19,2,21,0.00
2013-3-31,55.7,52.8,48.7,37.3,31.8,25.5,60,45,33,29.91,29.89,24,9,27,0.00
2013-4-18,60.9,48.2,24.0,28.4,22.1,14.4,80,38,24,30.48,30.30,11,2,11,0.15
2013-4-19,67.5,48.7,27.5,36.9,28.5,20.5,80,49,25,30.36,30.07,31,3,31,0.00
2013-4-20,71.0,51.0,29.6,38.5,29.7,22.8,87,49,20,30.17,29.97,11,1,11,0.00
2013-4-21,76.0,54.2,31.8,41.9,33.0,18.2,78,48,22,30.12,29.91,19,2,19,0.00
2013-4-22,73.8,53.9,36.6,41.9,32.3,20.2,83,49,20,30.11,29.86,21,4,22,0.00
2013-4-23,64.8,46.9,29.4,29.9,20.0,10.8,74,36,20,30.17,29.92,11,3,11,0.00
2013-4-24,65.3,47.0,24.7,26.8,20.7,13.0,79,40,18,30.15,29.93,20,4,20,0.00
2013-4-25,71.3,50.9,28.1,35.9,26.7,15.8,75,43,18,30.08,29.94,20,3,22,0.00
2013-4-26,76.4,55.7,32.6,39.0,32.3,25.4,79,46,17,30.22,30.08,15,2,17,0.00
2013-4-27,78.4,59.4,38.5,42.9,37.1,30.6,80,48,23,30.21,30.00,26,4,26,0.00
2013-4-28,79.3,59.2,35.9,42.0,34.1,26.7,80,43,17,30.05,29.85,22,3,24,0.00
2013-4-29,80.2,60.7,40.2,48.6,38.6,32.4,82,48,23,29.93,29.66,26,4,26,0.00
2013-4-30,68.7,54.8,40.0,38.1,30.5,9.6,70,41,20,30.06,29.70,19,4,20,0.00
2013-5-1,63.2,48.3,33.6,23.2,14.1,4.9,40,26,17,30.43,30.06,23,5,23,0.00
2013-5-2,72.2,48.7,27.1,34.6,22.9,9.7,74,40,17,30.50,30.20,10,2,10,0.00
2013-5-3,75.7,56.1,34.7,39.2,30.3,19.4,75,41,19,30.22,29.86,19,3,19,0.00
2013-5-4,67.0,50.4,32.1,37.3,30.6,20.4,79,49,27,29.91,29.62,26,3,26,0.00
2013-5-5,61.5,49.6,36.8,47.2,40.4,31.3,90,72,47,29.76,29.66,14,2,14,0.13
2013-5-6,57.9,47.9,41.8,44.2,41.4,37.6,91,79,52,29.90,29.73,23,2,23,0.81
2013-5-7,59.0,47.7,41.5,45.1,40.8,36.4,92,79,46,30.00,29.89,21,2,21,0.18
2013-5-8,65.5,52.6,44.1,45.5,42.4,37.1,94,71,37,30.06,29.94,12,2,12,0.06
2013-5-9,71.4,57.4,40.5,47.2,41.6,36.3,91,60,30,30.12,29.96,7,1,9,0.00
2013-5-10,77.5,62.0,41.9,49.2,40.0,31.5,87,48,23,30.14,30.01,7,0,7,0.00
2013-5-11,83.7,64.3,42.4,48.9,41.8,35.7,84,48,19,30.16,29.98,26,3,27,0.00
2013-5-12,81.3,64.4,44.5,52.2,42.4,35.2,82,49,22,30.11,29.93,32,5,33,0.00
2013-5-13,79.8,65.0,46.6,50.1,38.5,30.2,72,41,22,30.01,29.87,31,5,33,0.00
2013-5-14,75.2,56.3,49.5,51.4,24.9,-99.9,58,38,27,29.90,29.78,31,-102,37,0.00
2013-5-15,73.8,58.8,40.4,47.4,31.0,-99.9,84,41,17,29.89,29.80,33,-6,34,0.00
2013-5-16,65.0,51.9,38.6,43.2,36.0,23.6,76,55,40,29.88,29.77,27,4,28,0.00
2013-5-17,64.1,52.0,36.2,41.7,34.1,18.9,87,54,24,29.99,29.83,29,4,29,0.00
2013-5-18,70.8,51.9,31.3,39.5,32.0,24.9,84,50,25,30.08,29.97,25,2,25,0.00
2013-5-19,69.6,54.5,40.5,42.1,34.5,24.2,85,49,28,30.14,30.00,13,2,13,0.00
2013-5-20,77.2,55.7,33.2,43.9,32.7,25.4,80,45,20,30.17,29.90,12,2,12,0.00
2013-5-21,70.3,60.8,42.8,39.5,30.0,14.6,67,33,14,29.91,29.59,56,10,56,0.00
2013-5-22,64.1,52.4,39.3,30.3,20.5,3.6,54,30,13,29.76,29.59,34,6,40,0.00
2013-5-23,60.7,45.4,27.3,31.2,23.6,14.7,75,45,23,30.01,29.75,24,4,28,0.00
2013-5-24,75.7,51.3,27.2,34.4,27.7,19.0,83,45,16,30.00,29.82,33,4,33,0.00
2013-5-25,71.8,55.1,34.4,38.7,31.4,24.3,74,43,23,29.89,29.79,26,4,27,0.00
2013-5-26,67.5,54.7,38.2,38.4,31.4,26.3,71,42,28,29.99,29.84,30,5,37,0.00
2013-5-27,67.5,50.4,33.6,43.9,36.1,26.8,87,60,30,29.99,29.84,23,3,23,0.00
2013-5-28,66.5,56.9,49.2,44.4,39.6,33.7,80,54,33,29.85,29.76,31,6,32,0.03
2013-5-29,70.5,59.2,44.9,42.8,36.7,27.9,75,45,25,29.82,29.69,38,4,39,0.01
2013-5-30,76.5,57.5,35.0,41.4,34.0,26.4,87,46,19,29.95,29.80,23,3,25,0.00
2013-5-31,76.6,59.4,36.1,39.7,30.7,22.1,82,38,16,30.07,29.95,7,0,7,0.00
2013-6-1,83.0,63.8,38.2,44.4,34.5,13.9,76,36,18,30.02,29.74,7,1,7,0.00
2013-6-2,84.3,59.2,51.0,47.8,15.8,-99.9,59,29,18,29.78,29.53,15,-177,15,0.00
2013-6-3,68.7,41.9,44.4,45.7,7.1,-99.9,83,46,29,29.77,29.63,7,-235,7,0.00
2013-6-10,59.9,59.2,58.0,46.7,45.3,44.3,66,60,58,29.75,29.73,3,0,10,0.00
2013-6-11,81.8,60.9,55.2,47.2,26.1,-99.9,59,35,20,29.77,29.71,32,-102,32,0.00
2013-6-12,79.8,72.6,56.6,47.4,34.8,10.9,35,25,13,29.77,29.66,36,10,38,0.00
2013-6-13,73.0,55.8,40.2,34.6,14.0,-99.9,68,25,12,29.99,29.77,28,-80,34,0.00
2013-6-14,73.3,56.2,35.8,43.0,33.8,25.9,80,46,24,30.06,29.84,12,2,12,0.00
2013-6-15,78.7,59.6,37.0,41.8,36.4,30.2,83,47,22,29.91,29.75,30,4,30,0.00
2013-6-16,80.8,60.7,37.0,43.8,37.2,31.0,83,47,18,29.99,29.89,31,4,31,0.00
2013-6-17,82.5,61.0,37.0,46.1,37.8,31.1,83,47,19,30.01,29.83,27,3,30,0.00
2013-6-18,75.7,59.5,40.5,41.5,31.4,13.4,73,38,18,29.85,29.65,40,7,42,0.00
2013-6-19,68.8,56.7,41.5,32.9,24.2,12.3,67,30,16,29.91,29.73,27,5,28,0.00
2013-6-20,71.3,54.2,32.5,40.3,32.6,25.9,86,49,20,29.98,29.84,27,3,29,0.00
2013-6-21,65.3,47.2,35.5,41.0,34.5,29.1,80,63,37,30.02,29.92,10,1,10,0.00
2013-6-22,82.0,60.8,36.3,46.5,38.5,31.6,85,48,25,29.98,29.75,23,3,26,0.00
2013-6-23,72.3,58.5,41.3,47.3,39.8,33.9,82,53,31,29.79,29.63,33,3,34,0.00
2013-6-24,66.6,58.0,46.9,49.4,44.0,36.1,81,60,48,29.79,29.62,23,5,24,0.00
2013-6-25,70.0,61.9,52.8,53.7,49.5,44.4,84,65,48,29.89,29.76,35,6,35,0.01
2013-6-26,85.5,67.7,47.8,55.9,49.8,42.1,85,56,28,29.94,29.85,21,3,26,0.00
2013-6-27,91.5,71.3,46.2,59.3,52.0,41.9,87,55,28,30.02,29.89,24,3,24,0.00
2013-6-28,98.5,70.4,51.5,63.3,53.9,46.4,85,61,22,29.99,29.79,27,2,27,0.05
2013-6-29,94.0,74.1,52.7,60.5,53.2,47.9,90,55,23,29.92,29.75,24,3,25,0.00
2013-6-30,98.7,75.3,50.1,59.2,52.4,45.3,88,50,22,29.82,29.66,24,3,24,0.00
2013-7-1,98.5,73.9,57.1,61.4,53.2,47.3,79,53,19,29.88,29.72,33,4,35,0.02
2013-7-2,100.2,72.7,58.3,64.9,55.7,49.1,82,59,22,29.94,29.77,33,2,36,0.00
2013-7-3,98.5,71.6,51.2,61.4,53.9,47.1,89,59,25,29.97,29.73,14,1,14,0.00
2013-7-4,91.7,73.8,55.1,68.5,55.6,49.4,84,56,27,29.80,29.58,27,3,27,0.06
2013-7-5,89.2,73.4,53.3,60.2,46.8,31.2,85,46,17,29.63,29.51,33,7,34,0.00
2013-7-6,87.4,68.4,42.6,51.9,40.6,29.8,75,40,18,29.68,29.57,39,5,41,0.00
2013-7-7,87.8,72.8,47.9,50.2,41.3,33.8,72,36,19,29.73,29.63,35,5,35,0.00
2013-7-8,88.3,72.9,49.8,49.8,40.7,32.6,67,34,17,29.87,29.71,23,4,24,0.00
2013-7-9,90.0,70.4,45.2,48.7,41.6,34.7,73,39,17,29.97,29.85,23,4,27,0.00
2013-7-10,88.2,70.3,42.1,51.3,42.0,34.1,76,39,22,29.95,29.80,32,5,33,0.00
2013-7-11,84.3,74.8,56.3,52.0,42.6,28.8,48,32,21,29.81,29.62,30,6,30,0.00
2013-7-12,86.3,66.1,39.9,46.7,38.9,29.8,75,41,20,29.85,29.71,25,3,28,0.00
2013-7-13,85.8,65.5,38.9,46.2,39.1,30.0,75,43,18,29.92,29.79,21,4,23,0.00
2013-7-14,90.3,68.2,42.8,48.7,43.3,36.6,81,46,20,29.97,29.77,26,3,26,0.00
2013-7-15,89.8,69.7,46.7,52.5,46.0,39.8,80,47,22,29.83,29.59,22,2,23,0.00
2013-7-16,85.4,69.6,48.1,50.0,42.7,29.7,81,43,15,29.84,29.66,25,3,25,0.00
2013-7-17,89.7,66.6,36.8,48.0,39.8,29.0,77,42,17,30.01,29.84,21,2,22,0.00
2013-7-18,96.3,70.6,41.4,54.0,44.9,35.5,84,47,14,29.99,29.76,18,2,18,0.00
2013-7-19,99.0,73.7,46.7,53.8,47.0,40.1,81,45,16,29.87,29.65,18,2,19,0.00
2013-7-20,102.3,75.3,49.3,54.6,47.6,40.0,76,43,15,29.76,29.58,27,2,27,0.00
2013-7-21,99.3,78.9,51.9,57.5,49.6,44.5,80,42,17,29.70,29.57,26,4,26,0.00
2013-7-22,96.8,76.5,51.1,57.4,50.3,42.5,74,43,19,29.85,29.61,25,2,25,0.18
2013-7-23,89.5,72.5,58.4,60.0,54.3,49.2,84,55,29,29.85,29.75,17,2,17,0.00
2013-7-24,75.1,60.2,52.2,55.8,50.2,46.3,83,71,45,29.89,29.83,11,1,11,0.00
2013-7-25,60.3,60.0,59.7,56.9,56.3,55.5,89,88,85,30.00,29.98,4,1,4,0.04
2013-7-26,88.4,65.9,50.3,59.4,52.8,47.8,93,68,30,30.03,29.86,24,2,24,0.00
2013-7-27,77.8,56.0,47.8,54.0,47.4,42.6,86,74,44,29.94,29.88,7,1,7,0.00
2013-7-28,85.3,75.9,57.6,49.6,46.9,43.9,62,37,27,29.71,29.62,27,5,35,0.00
2013-7-29,83.8,57.2,44.4,49.9,42.6,36.8,78,61,25,29.79,29.71,19,1,19,0.00
2013-8-3,86.9,62.8,38.8,46.0,38.9,32.1,80,47,21,29.93,29.76,20,3,20,0.00
2013-8-4,89.8,76.3,48.4,47.8,43.4,37.6,78,34,18,29.93,29.75,22,4,23,0.00
2013-8-5,84.3,55.0,41.4,46.2,39.3,34.3,81,60,19,29.93,29.86,6,0,6,0.00
2013-8-8,77.4,65.9,56.2,44.8,43.4,41.1,65,46,31,29.83,29.72,21,3,21,0.00
2013-8-9,84.2,64.2,45.0,49.5,40.7,30.8,82,47,17,29.84,29.71,23,3,26,0.00
2013-8-10,82.0,61.7,38.0,43.3,37.1,28.3,72,44,20,29.93,29.81,24,3,24,0.00
2013-8-11,83.4,62.6,37.3,45.7,39.7,31.4,82,48,22,29.99,29.79,23,3,27,0.00
2013-8-12,85.7,64.1,38.3,47.1,39.1,32.3,83,46,17,29.93,29.80,22,3,25,0.00
2013-8-13,90.5,65.2,36.9,44.7,38.1,30.4,80,43,15,29.99,29.80,25,2,25,0.00
2013-8-14,81.0,52.2,39.6,41.1,35.5,31.0,75,56,23,29.95,29.88,6,0,6,0.00
2013-8-23,83.5,70.1,51.6,46.8,43.0,38.0,70,40,22,29.85,29.68,23,3,23,0.49
2013-8-24,80.2,61.1,39.4,47.1,39.1,33.4,82,50,20,29.82,29.70,31,4,31,0.00
2013-8-25,77.8,61.6,42.0,47.1,40.5,34.6,78,49,24,29.87,29.77,33,6,33,0.00
2013-8-26,79.5,64.0,45.0,45.8,41.0,35.8,74,46,22,29.93,29.79,30,4,30,0.00
2013-8-27,81.2,62.1,42.6,51.7,44.0,37.1,83,55,31,29.89,29.73,18,2,21,0.00
2013-8-28,81.5,66.6,46.3,55.1,47.4,38.9,85,54,23,29.85,29.73,30,5,32,0.00
2013-8-29,85.6,69.4,51.8,51.1,42.9,35.3,71,43,17,29.93,29.85,28,5,28,0.00
2013-8-30,92.3,68.4,42.7,50.8,42.4,35.3,78,44,17,30.01,29.83,16,2,16,0.00
2013-8-31,91.2,68.5,45.8,51.4,45.4,39.3,80,48,22,29.92,29.74,24,3,25,0.00
2013-9-1,82.7,67.3,50.9,54.0,48.9,43.6,80,54,32,29.84,29.71,16,1,16,0.00
2013-9-2,83.0,74.1,65.5,54.7,50.5,46.8,61,44,30,29.80,29.66,35,8,40,0.00
2013-9-3,84.7,71.7,58.5,54.0,49.9,45.5,72,48,29,29.81,29.70,36,5,36,0.00
2013-9-4,85.7,70.3,52.4,55.7,48.5,44.6,78,49,28,29.89,29.75,33,6,35,0.00
2013-9-5,82.7,70.0,54.0,49.8,43.0,36.3,66,40,21,29.81,29.71,40,7,40,0.00
2013-9-6,86.7,66.5,46.1,50.6,42.8,38.1,78,45,23,29.92,29.75,13,2,14,0.00
2013-9-7,88.5,65.4,39.9,47.7,41.0,34.1,84,48,17,29.92,29.76,16,1,16,0.00
2013-9-8,87.0,63.9,38.4,47.7,39.3,32.2,83,46,21,29.93,29.74,25,4,25,0.00
2013-9-9,87.9,63.3,40.1,49.3,39.8,33.6,80,47,20,29.91,29.70,12,1,12,0.00
2013-9-10,87.0,62.4,38.3,44.5,38.4,31.5,79,47,17,29.87,29.72,11,1,12,0.00
2013-9-11,87.7,64.6,41.9,49.1,41.9,35.1,78,48,21,29.91,29.80,19,3,22,0.00
2013-9-12,84.3,65.0,43.0,54.5,46.6,36.6,84,55,28,29.88,29.74,21,3,21,0.01
2013-9-13,83.0,64.2,43.8,54.7,48.5,41.1,91,62,28,29.86,29.69,22,2,22,0.00
2013-9-14,88.6,65.7,44.1,52.6,47.5,39.8,87,57,26,29.78,29.61,19,2,19,0.00
2013-9-15,84.7,67.4,45.0,51.1,43.0,35.7,85,48,22,29.73,29.64,33,5,33,0.00
2013-9-16,85.1,69.4,44.4,44.4,39.2,33.5,68,36,20,29.74,29.59,33,6,33,0.00
2013-9-17,74.5,64.5,43.8,39.8,33.8,27.4,55,33,20,29.78,29.50,38,8,41,0.00
2013-9-18,71.2,51.3,31.6,41.8,33.0,25.3,80,53,25,30.00,29.78,10,2,10,0.00
2013-9-19,78.7,52.2,28.9,40.5,32.3,24.0,83,52,21,30.06,29.83,8,1,9,0.00
2013-9-20,78.7,57.6,33.2,39.2,32.2,25.6,76,43,19,29.88,29.68,41,7,41,0.00
2013-9-21,64.5,54.1,39.6,45.3,35.8,27.1,80,52,34,29.75,29.51,44,10,48,0.05
2013-9-22,68.5,49.4,32.8,40.8,35.9,29.4,92,63,30,29.99,29.75,19,2,19,0.00
2013-9-23,81.5,53.6,28.9,43.1,34.5,26.0,92,56,16,30.08,29.88,15,1,16,0.00
2013-9-24,73.5,59.4,38.7,39.1,30.8,22.8,64,36,19,29.94,29.63,46,10,48,0.00
2013-9-25,58.2,49.4,34.6,33.0,26.7,18.4,81,44,26,29.80,29.62,35,6,35,0.02
2013-9-26,54.5,42.3,29.9,32.3,28.7,22.5,86,61,35,30.10,29.80,18,3,20,0.00
2013-9-27,63.9,41.2,21.0,31.8,26.1,17.1,87,60,25,30.25,30.10,9,1,10,0.00
2013-9-28,74.8,52.8,28.1,38.2,30.6,22.3,83,48,25,30.20,30.00,19,3,22,0.00
2013-9-29,72.8,63.6,58.5,36.1,31.7,26.8,36,30,24,30.01,29.81,51,11,51,0.00
2013-9-30,72.2,60.5,40.0,42.7,35.2,24.7,76,40,22,29.88,29.77,35,7,35,0.00
2013-10-1,78.7,54.9,34.7,42.8,34.5,23.5,84,53,14,29.91,29.82,22,3,25,0.00
2013-10-2,69.1,49.6,30.8,37.8,25.8,13.4,81,46,16,29.95,29.84,33,4,33,0.00
2013-10-3,56.9,41.7,28.8,27.3,21.2,14.9,62,45,24,30.27,29.93,18,3,20,0.00
2013-10-4,60.2,41.9,20.1,26.6,20.9,12.7,77,46,21,30.44,30.27,22,3,23,0.00
2013-10-5,67.3,39.5,15.8,30.4,20.2,9.9,82,51,20,30.56,30.35,9,1,9,0.00
2013-10-6,77.2,45.3,20.0,38.7,23.9,14.0,79,50,16,30.41,30.11,7,1,7,0.00
2013-10-7,78.8,48.1,26.5,29.7,22.6,12.4,76,45,10,30.13,29.88,21,2,21,0.00
2013-10-8,65.3,54.8,30.8,30.6,27.4,20.4,67,36,23,29.93,29.61,16,2,17,0.00
2013-10-9,48.9,44.5,38.1,37.1,32.5,24.8,86,63,40,29.78,29.53,16,3,17,0.10
2013-10-10,63.9,43.6,26.2,38.8,31.1,22.3,90,65,29,30.01,29.77,20,2,21,0.00
2013-10-11,67.2,45.2,24.3,37.5,30.8,21.3,90,62,28,30.14,29.95,12,1,13,0.01
2013-10-12,67.0,45.4,22.7,33.8,27.9,18.8,87,56,23,30.03,29.81,25,3,28,0.00
2013-10-13,53.2,42.6,32.6,38.3,32.6,24.3,83,69,47,30.22,29.90,9,2,9,0.07
2013-10-14,59.7,41.0,23.1,36.4,29.0,20.3,92,66,31,30.34,30.18,10,2,10,0.01
2013-10-15,58.8,38.2,18.5,30.7,23.8,14.9,88,61,30,30.32,30.22,16,2,17,0.01
2013-10-16,70.0,41.5,16.2,32.1,23.9,11.7,85,55,20,30.34,30.14,7,1,7,0.00
2013-10-17,69.2,44.1,23.3,32.7,25.8,18.4,85,54,21,30.23,30.06,10,1,11,0.00
2013-10-18,70.5,41.9,20.2,31.7,24.3,14.0,83,55,21,30.31,30.13,8,1,9,0.00
2013-10-19,74.8,44.1,21.9,33.8,25.9,15.7,82,54,20,30.29,30.12,6,1,6,0.00
2013-10-20,74.7,46.2,22.8,31.9,24.9,17.1,83,50,16,30.20,30.02,9,1,9,0.00
2013-10-21,69.6,44.4,23.2,35.1,24.7,17.3,83,51,20,30.20,30.05,7,1,8,0.00
2013-10-22,74.5,46.7,24.1,34.5,25.5,17.5,81,49,19,30.23,30.04,10,1,10,0.00
2013-10-23,73.3,45.9,23.9,31.7,25.1,18.1,80,50,20,30.13,29.96,9,1,9,0.00
2013-10-24,73.9,46.3,23.4,30.2,24.1,17.0,79,48,17,30.18,30.01,12,1,13,0.00
2013-10-25,73.9,45.5,23.2,29.9,22.3,16.4,77,46,15,30.27,30.14,6,1,10,0.00
2013-10-26,71.5,43.6,22.9,29.2,22.1,16.0,79,48,15,30.33,30.15,11,1,11,0.00
2013-10-27,69.5,46.7,25.2,29.0,23.5,16.8,73,45,20,30.18,29.36,60,10,63,0.00
2013-10-28,46.3,39.0,31.5,35.6,28.8,23.4,91,68,43,29.80,29.43,33,4,37,0.19
2013-10-29,45.0,40.0,37.2,33.4,30.6,27.1,79,69,53,30.11,29.79,21,4,21,0.00
2013-10-30,53.9,36.8,20.8,33.3,28.2,17.8,89,73,40,30.29,30.09,9,1,9,0.00
2013-10-31,59.7,36.0,19.7,34.5,26.6,17.0,92,72,34,30.41,30.26,10,1,10,0.00
2013-11-1,64.0,37.2,19.1,36.6,26.6,15.6,89,69,33,30.45,30.21,9,1,10,0.00
2013-11-2,69.0,43.0,20.0,35.6,26.1,16.0,88,58,20,30.21,29.86,34,4,35,0.00
2013-11-3,47.8,38.8,25.5,30.0,23.6,16.8,82,55,42,30.03,29.90,14,3,14,0.00
2013-11-4,47.4,32.1,18.2,21.3,17.2,11.0,77,56,35,30.34,30.01,11,2,12,0.00
2013-11-5,57.5,31.2,12.6,22.5,16.6,7.8,85,59,23,30.49,30.32,6,1,7,0.00
2013-11-6,64.3,36.9,19.4,30.4,22.5,13.7,83,60,27,30.55,30.34,9,1,9,0.00
2013-11-7,68.9,45.8,28.9,32.5,24.6,20.1,81,50,19,30.38,30.09,28,2,30,0.00
2013-11-8,70.7,47.8,28.6,27.7,22.0,17.9,65,39,16,30.10,29.89,12,1,12,0.00
2013-11-9,68.2,41.6,27.8,32.7,25.4,19.5,76,55,25,30.20,30.02,10,1,10,0.00
2013-11-10,68.0,37.8,20.0,29.9,21.9,14.9,82,57,19,30.28,30.15,7,1,10,0.00
2013-11-11,66.1,39.5,19.7,28.9,22.2,13.7,80,54,22,30.36,30.23,7,1,7,0.00
2013-11-12,64.7,44.1,29.9,31.8,26.1,19.8,71,52,26,30.41,30.29,12,1,13,0.00
2013-11-13,65.5,40.2,22.4,31.6,24.9,16.4,81,58,27,30.43,30.27,12,2,12,0.00
2013-11-14,69.5,43.5,19.7,32.4,24.5,15.9,87,53,21,30.31,29.80,23,3,26,0.00
2013-11-15,47.7,36.3,24.4,31.8,26.7,19.8,85,69,51,29.84,29.73,16,3,17,0.00
2013-11-16,60.1,42.1,25.9,30.1,25.9,18.8,85,57,30,29.92,29.71,22,3,22,0.00
2013-11-17,59.0,37.4,18.0,32.1,23.1,11.4,88,60,30,30.18,29.91,6,1,6,0.00
2013-11-18,58.5,38.5,17.5,33.1,25.5,12.7,92,62,37,30.18,30.01,16,1,17,0.00
2013-11-19,59.0,49.4,38.6,39.9,33.9,27.6,86,56,42,30.04,29.85,25,2,28,0.02
2013-11-20,51.2,43.3,36.6,41.1,37.8,31.4,91,82,59,29.91,29.75,16,2,17,0.19
2013-11-21,36.4,30.7,27.1,32.6,25.2,18.3,89,80,63,30.42,29.88,18,5,19,0.01
2013-11-22,39.2,24.7,13.1,22.0,15.3,8.9,86,70,37,30.56,30.39,10,2,11,0.02
2013-11-23,48.1,26.7,15.7,23.6,15.8,11.9,92,68,26,30.45,30.31,10,1,11,0.00
2013-11-24,49.4,26.5,13.2,24.6,16.9,9.5,87,70,30,30.54,30.37,5,1,5,0.00
2013-11-25,53.8,28.3,13.3,27.0,19.1,9.6,87,72,31,30.61,30.48,6,1,6,0.01
2013-11-26,50.3,29.9,15.7,31.1,21.9,12.2,88,74,38,30.54,30.30,7,1,7,0.00
2013-11-27,52.6,33.2,21.6,32.2,25.3,18.3,89,75,42,30.30,30.05,7,1,7,0.00
2013-11-28,49.2,31.4,21.3,33.2,24.9,17.8,92,78,49,30.32,30.11,7,1,9,0.00
2013-11-29,53.7,30.2,16.2,32.4,23.0,13.3,90,77,41,30.47,30.31,6,1,6,0.00
2013-11-30,55.2,29.8,15.3,30.9,21.6,12.1,90,74,36,30.53,30.36,7,1,7,0.01
2013-12-1,56.0,31.9,15.7,31.8,21.9,12.2,88,69,32,30.59,30.42,7,1,9,0.00
2013-12-2,64.3,48.6,21.6,34.2,23.3,15.2,81,42,16,30.44,29.70,46,9,47,0.00
2013-12-3,51.8,29.6,1.9,36.6,21.1,-2.3,88,73,38,29.98,29.49,45,7,46,0.02
2013-12-4,24.7,13.6,-1.3,19.1,9.2,-5.7,92,82,75,30.33,29.96,11,1,11,0.06
2013-12-5,25.9,14.5,3.6,15.0,8.8,-0.6,93,78,57,30.33,30.22,4,1,5,0.01
2013-12-6,34.4,19.2,1.4,22.3,10.8,-2.8,89,72,31,30.34,29.86,40,6,40,0.01
2013-12-7,29.6,22.8,9.5,24.9,12.0,0.9,90,65,37,30.29,29.83,60,6,60,0.00
2013-12-8,18.7,7.0,-4.3,8.6,1.8,-8.3,89,79,63,30.79,30.29,7,1,7,0.00
2013-12-9,22.2,2.8,-9.3,9.6,-2.4,-15.0,89,79,58,30.99,30.77,6,1,6,0.00
2013-12-10,25.7,11.9,-5.2,15.3,5.3,-8.9,87,75,56,30.94,30.68,4,0,5,0.00
2013-12-11,28.5,19.3,11.8,16.4,12.2,6.3,85,74,59,30.71,30.61,4,0,4,0.00
2013-12-12,28.1,16.8,5.5,18.2,10.3,0.2,86,76,65,30.67,30.50,10,0,10,0.00
2013-12-13,39.7,21.5,5.0,21.9,13.8,2.1,93,73,43,30.74,30.51,11,1,11,0.00
2013-12-14,37.6,20.7,6.6,22.7,12.5,-99.9,92,75,52,30.83,30.71,5,-10,5,0.00
2013-12-15,42.2,22.5,7.6,25.2,15.7,4.1,95,76,49,30.81,30.65,4,0,4,0.00
2013-12-16,40.6,25.5,10.9,27.3,19.6,8.3,91,79,56,30.73,30.57,5,0,5,0.00
2013-12-17,36.1,24.5,13.8,28.2,20.9,11.7,95,86,68,30.65,30.39,2,0,2,0.00
2013-12-18,56.2,36.9,21.6,34.3,26.1,19.3,95,69,30,30.40,29.71,20,1,20,0.01
2013-12-19,45.6,31.7,19.1,30.1,23.5,13.2,94,73,36,30.12,29.69,13,0,15,0.03
2013-12-20,33.2,21.7,5.5,21.0,14.3,1.8,89,73,57,30.30,30.12,6,0,6,0.00
2013-12-21,49.4,29.0,15.7,33.9,23.0,12.6,93,79,52,30.36,30.19,7,1,7,0.00
2013-12-22,47.2,27.7,19.8,32.0,9.6,-99.9,96,69,55,30.55,30.35,7,-121,8,0.01
2013-12-23,52.2,33.1,20.3,33.5,24.8,16.7,96,73,46,30.62,30.49,6,1,7,0.00
2013-12-24,51.1,33.4,21.6,32.2,25.2,15.9,94,74,47,30.64,30.49,7,1,7,0.01
2013-12-25,46.9,28.1,18.9,32.9,17.7,-99.9,96,77,57,30.69,30.53,5,-45,6,0.00
2013-12-26,46.2,28.5,16.0,28.9,20.9,13.6,96,75,44,30.68,30.53,4,0,5,0.01
2013-12-27,42.2,28.7,15.2,28.1,20.8,12.5,93,74,50,30.59,30.34,7,0,7,0.00
2013-12-28,48.6,30.2,15.2,26.5,17.7,-99.9,90,65,32,30.52,30.31,13,-9,13,0.00
2013-12-29,43.4,26.4,14.0,26.1,13.5,-99.9,94,69,47,30.56,30.43,6,-52,6,0.00
2013-12-30,47.0,27.2,14.8,26.0,4.7,-99.9,93,59,40,30.52,30.38,4,-135,5,0.01
2013-12-31,56.4,33.6,24.3,29.1,23.6,18.3,87,69,28,30.42,30.28,8,1,9,0.00
2014-1-1,52.6,33.2,19.1,26.0,21.6,15.1,87,64,34,30.50,30.35,5,1,7,0.00
2014-1-2,50.8,32.2,17.9,28.0,22.8,15.0,92,70,38,30.44,30.30,6,0,6,0.00